Time;durP1;ratioP1;P1;durP2;ratioP2;P2;SDS_P1;SDS_P2;PMS_P1;PMS_P2;Temp;Humidity;BMP_temperature;BMP_pressure;BME280_temperature;BME280_humidity;BME280_pressure;Samples;Min_cycle;Max_cycle;Signal;HPM_P1;HPM_P2
2021/12/30 00:02:04;;;;;;;12.90;11.80;;;;;;;22.76;35.11;94392.50;4961046;28;103189;-73
2021/12/30 00:04:30;;;;;;;13.53;12.43;;;;;;;22.75;35.25;94395.50;4959900;28;102915;-74
2021/12/30 00:06:55;;;;;;;15.00;13.70;;;;;;;22.76;34.79;94389.84;4954931;28;103140;-75
2021/12/30 00:09:21;;;;;;;15.33;14.13;;;;;;;22.73;35.20;94395.81;4959394;28;103439;-74
2021/12/30 00:11:47;;;;;;;13.93;12.70;;;;;;;22.74;35.14;94400.03;4958768;28;103860;-74
2021/12/30 00:14:13;;;;;;;14.67;13.43;;;;;;;22.73;35.08;94389.72;4959995;28;103033;-74
2021/12/30 00:16:39;;;;;;;14.73;13.53;;;;;;;22.75;35.05;94392.84;4936359;28;104406;-74
2021/12/30 00:19:05;;;;;;;14.83;13.63;;;;;;;22.75;34.77;94384.84;4959897;28;103165;-74
2021/12/30 00:21:31;;;;;;;15.40;14.10;;;;;;;22.74;34.55;94399.25;4940828;28;102802;-74
2021/12/30 00:23:56;;;;;;;14.80;13.60;;;;;;;22.74;34.66;94393.94;4960324;28;103060;-73
2021/12/30 00:26:22;;;;;;;14.53;13.33;;;;;;;22.72;34.92;94398.81;4960020;28;102718;-73
2021/12/30 00:28:47;;;;;;;15.33;14.00;;;;;;;22.72;35.11;94402.25;4955348;28;103889;-73
2021/12/30 00:31:14;;;;;;;15.03;13.80;;;;;;;22.72;34.89;94402.25;4941530;28;102824;-74
2021/12/30 00:33:40;;;;;;;15.53;14.23;;;;;;;22.73;34.56;94408.34;4959478;28;102972;-73
2021/12/30 00:36:07;;;;;;;13.77;12.57;;;;;;;22.72;35.01;94412.91;4960182;28;102715;-74
2021/12/30 00:38:35;;;;;;;14.40;13.20;;;;;;;22.71;34.74;94407.91;4954038;28;103845;-74
2021/12/30 00:41:00;;;;;;;13.30;12.27;;;;;;;22.69;34.88;94407.44;4957417;28;103575;-73
2021/12/30 00:43:26;;;;;;;12.80;11.73;;;;;;;22.70;34.72;94411.66;4959863;28;102758;-73
2021/12/30 00:45:52;;;;;;;14.00;12.90;;;;;;;22.71;34.46;94411.34;4959368;28;103434;-73
2021/12/30 00:48:18;;;;;;;13.33;12.23;;;;;;;22.70;34.38;94411.66;4959415;28;102639;-72
2021/12/30 00:50:46;;;;;;;12.47;11.47;;;;;;;22.70;34.46;94415.09;4953458;28;103214;-73
2021/12/30 00:53:12;;;;;;;11.80;10.80;;;;;;;22.70;34.49;94416.97;4958732;28;102852;-72
2021/12/30 00:55:39;;;;;;;12.80;11.70;;;;;;;22.70;34.66;94420.44;4959501;28;102986;-72
2021/12/30 00:58:05;;;;;;;12.73;11.63;;;;;;;22.71;34.53;94418.56;4959590;28;102729;-73
2021/12/30 01:00:32;;;;;;;12.07;11.00;;;;;;;22.69;34.35;94410.09;4952947;28;102753;-72
2021/12/30 01:02:58;;;;;;;12.53;11.43;;;;;;;22.67;34.60;94412.28;4941613;28;102877;-73
2021/12/30 01:05:23;;;;;;;12.60;11.50;;;;;;;22.70;34.72;94428.41;4958775;28;103324;-73
2021/12/30 01:07:49;;;;;;;12.30;11.30;;;;;;;22.69;34.59;94420.75;4959579;28;102854;-73
2021/12/30 01:10:17;;;;;;;12.70;11.63;;;;;;;22.70;34.43;94430.31;4941886;28;103486;-73
2021/12/30 01:12:44;;;;;;;11.93;10.93;;;;;;;22.69;34.62;94439.38;4954522;28;103362;-73
2021/12/30 01:15:12;;;;;;;13.27;12.17;;;;;;;22.69;34.66;94437.50;4941724;28;105687;-73
2021/12/30 01:17:55;;;;;;;13.20;12.10;;;;;;;22.68;34.03;94437.81;4957120;28;104716;-74
2021/12/30 01:20:22;;;;;;;11.73;10.73;;;;;;;22.68;34.24;94438.63;4940845;28;105074;-74
2021/12/30 01:22:49;;;;;;;13.87;12.67;;;;;;;22.67;34.15;94436.25;4954601;28;102790;-73
2021/12/30 01:25:15;;;;;;;12.50;11.40;;;;;;;22.67;34.29;94449.56;4941773;28;105924;-72
2021/12/30 01:27:41;;;;;;;13.90;12.70;;;;;;;22.67;34.26;94447.66;4959333;28;103557;-73
2021/12/30 01:30:19;;;;;;;11.83;10.83;;;;;;;22.68;34.13;94448.47;4957358;28;102761;-73
2021/12/30 01:32:44;;;;;;;13.37;12.27;;;;;;;22.67;34.29;94436.25;4940823;28;102812;-73
2021/12/30 01:35:14;;;;;;;12.53;11.53;;;;;;;22.66;34.14;94448.00;4951702;28;105251;-73
2021/12/30 01:37:40;;;;;;;12.60;11.60;;;;;;;22.67;34.20;94457.53;4959012;28;103335;-73
2021/12/30 01:40:11;;;;;;;14.30;13.03;;;;;;;22.61;33.88;94443.63;4958437;28;102741;-73
2021/12/30 01:42:36;;;;;;;14.20;13.07;;;;;;;22.68;34.13;94446.59;4941506;28;102653;-73
2021/12/30 01:45:03;;;;;;;14.20;12.90;;;;;;;22.67;34.19;94446.88;4954074;28;104881;-74
2021/12/30 01:47:29;;;;;;;13.33;12.13;;;;;;;22.68;34.06;94448.47;4941154;28;105429;-74
2021/12/30 01:49:54;;;;;;;14.10;12.83;;;;;;;22.67;34.22;94441.56;4958867;28;102763;-73
2021/12/30 01:52:20;;;;;;;14.40;13.20;;;;;;;22.65;33.87;94444.53;4941007;28;102878;-73
2021/12/30 01:54:46;;;;;;;13.00;11.90;;;;;;;22.66;34.01;94451.44;4957889;28;103535;-73
2021/12/30 01:57:11;;;;;;;14.13;12.93;;;;;;;22.65;34.10;94449.88;4953093;28;102843;-73
2021/12/30 01:59:37;;;;;;;14.23;13.03;;;;;;;22.65;33.84;94446.44;4957681;28;102821;-73
2021/12/30 02:02:04;;;;;;;14.03;12.83;;;;;;;22.66;34.27;94450.66;4940829;28;102797;-73
2021/12/30 02:04:30;;;;;;;14.50;13.17;;;;;;;22.65;34.02;94449.88;4958512;28;103282;-73
2021/12/30 02:06:56;;;;;;;12.77;11.67;;;;;;;22.65;34.23;94457.84;4935138;28;105548;-73
2021/12/30 02:09:22;;;;;;;13.40;12.30;;;;;;;22.64;34.22;94458.97;4957894;28;102754;-73
2021/12/30 02:11:48;;;;;;;14.83;13.53;;;;;;;22.64;34.17;94448.31;4941071;28;103903;-74
2021/12/30 02:14:15;;;;;;;13.90;12.90;;;;;;;22.65;34.39;94465.06;4958328;28;103212;-73
2021/12/30 02:16:41;;;;;;;14.30;13.10;;;;;;;22.63;34.29;94457.41;4959309;28;103114;-73
2021/12/30 02:19:08;;;;;;;14.80;13.60;;;;;;;22.64;34.26;94456.28;4952576;28;103199;-73
2021/12/30 02:21:33;;;;;;;13.37;12.20;;;;;;;22.64;34.08;94461.63;4957713;28;102667;-74
2021/12/30 02:23:59;;;;;;;15.60;14.13;;;;;;;22.63;33.78;94456.63;4957559;28;102671;-74
2021/12/30 02:26:26;;;;;;;14.60;13.40;;;;;;;22.62;33.91;94460.38;4959129;28;103391;-74
2021/12/30 02:28:52;;;;;;;14.60;13.50;;;;;;;22.65;33.82;94462.41;4952530;28;102902;-74
2021/12/30 02:31:24;;;;;;;17.50;16.00;;;;;;;22.63;33.74;94465.38;4956026;28;102926;-74
2021/12/30 02:33:50;;;;;;;15.20;14.00;;;;;;;22.65;33.72;94462.41;4954549;28;103817;-74
2021/12/30 02:36:18;;;;;;;14.77;13.57;;;;;;;22.63;33.51;94464.59;4939026;28;102748;-73
2021/12/30 02:38:46;;;;;;;15.50;14.20;;;;;;;22.64;33.88;94471.50;4958183;28;102734;-74
2021/12/30 02:41:18;;;;;;;16.37;15.03;;;;;;;22.63;33.89;94472.59;4953763;28;102845;-74
2021/12/30 02:43:47;;;;;;;16.40;15.00;;;;;;;22.62;33.88;94471.81;4961356;28;103454;-74
2021/12/30 02:46:14;;;;;;;15.60;14.30;;;;;;;22.63;34.13;94475.25;4961176;28;102777;-74
2021/12/30 02:48:41;;;;;;;16.10;14.77;;;;;;;22.63;34.04;94486.69;4961187;28;103238;-74
2021/12/30 02:51:08;;;;;;;15.20;14.00;;;;;;;22.63;34.10;94478.69;4956093;28;102741;-74
2021/12/30 02:53:34;;;;;;;16.93;15.53;;;;;;;22.62;33.92;94484.34;4960171;28;103585;-74
2021/12/30 02:56:00;;;;;;;16.17;14.87;;;;;;;22.62;34.02;94487.00;4943519;28;104338;-74
2021/12/30 02:58:26;;;;;;;15.43;14.23;;;;;;;22.62;33.54;94487.00;4961756;28;103107;-74
2021/12/30 03:01:13;;;;;;;16.00;14.80;;;;;;;22.62;33.88;94492.34;4961770;28;102654;-74
2021/12/30 03:03:40;;;;;;;15.60;14.30;;;;;;;22.63;33.67;94496.56;4960650;28;103455;-74
2021/12/30 03:06:08;;;;;;;17.30;15.80;;;;;;;22.62;33.66;94501.09;4960628;28;102803;-73
2021/12/30 03:08:34;;;;;;;16.17;14.77;;;;;;;22.62;33.42;94495.00;4960394;28;102694;-73
2021/12/30 03:11:00;;;;;;;16.07;14.67;;;;;;;22.63;33.77;94499.22;4961245;28;102797;-74
2021/12/30 03:13:33;;;;;;;16.03;14.63;;;;;;;22.62;33.58;94503.75;4955540;28;102722;-73
2021/12/30 03:16:22;;;;;;;17.23;15.73;;;;;;;22.61;33.63;94498.75;4960801;28;102921;-73
2021/12/30 03:18:49;;;;;;;16.93;15.50;;;;;;;22.63;33.42;94507.97;4961001;28;102781;-73
2021/12/30 03:21:20;;;;;;;16.63;15.33;;;;;;;22.61;33.89;94504.84;4960435;28;102695;-73
2021/12/30 03:23:46;;;;;;;16.23;14.93;;;;;;;22.61;33.88;94512.84;4953373;28;104798;-73
2021/12/30 03:26:13;;;;;;;16.87;15.33;;;;;;;22.62;33.51;94511.75;4942324;28;104686;-73
2021/12/30 03:28:40;;;;;;;17.40;16.00;;;;;;;22.64;33.53;94522.09;4942882;28;103249;-74
2021/12/30 03:31:07;;;;;;;17.70;16.30;;;;;;;22.61;33.92;94522.72;4961165;28;103155;-73
2021/12/30 03:33:32;;;;;;;17.87;16.37;;;;;;;22.62;33.96;94526.94;4959840;28;103184;-73
2021/12/30 03:36:00;;;;;;;17.27;15.77;;;;;;;22.62;33.68;94530.38;4955855;28;103313;-73
2021/12/30 03:38:31;;;;;;;16.93;15.50;;;;;;;22.63;33.85;94537.28;4960269;28;103430;-74
2021/12/30 03:40:59;;;;;;;16.03;14.73;;;;;;;22.63;33.70;94520.53;4961230;28;102800;-74
2021/12/30 03:43:25;;;;;;;16.40;14.80;;;;;;;22.63;33.48;94526.63;4942712;28;103187;-73
2021/12/30 03:45:51;;;;;;;16.30;14.90;;;;;;;22.64;33.84;94528.19;4955172;28;103688;-75
2021/12/30 03:48:16;;;;;;;17.03;15.63;;;;;;;22.65;33.74;94528.97;4960660;28;102948;-73
2021/12/30 03:50:44;;;;;;;18.70;17.00;;;;;;;22.65;33.31;94532.41;4960142;28;102801;-74
2021/12/30 03:53:12;;;;;;;16.77;15.37;;;;;;;22.65;33.41;94535.06;4960319;28;102849;-73
2021/12/30 03:55:38;;;;;;;16.70;15.27;;;;;;;22.64;33.52;94522.09;4959951;28;103441;-75
2021/12/30 03:58:05;;;;;;;15.30;14.00;;;;;;;22.74;33.65;94541.19;4953875;28;103141;-74
2021/12/30 04:00:31;;;;;;;16.70;15.20;;;;;;;22.79;33.60;94543.69;4960475;28;103258;-74
2021/12/30 04:02:57;;;;;;;13.97;12.87;;;;;;;22.83;33.42;94546.53;4960419;28;102718;-73
2021/12/30 04:05:24;;;;;;;14.43;13.20;;;;;;;22.87;33.25;94552.03;4960737;28;102697;-73
2021/12/30 04:07:50;;;;;;;14.10;12.90;;;;;;;22.88;33.32;94554.38;4955039;28;102664;-73
2021/12/30 04:10:19;;;;;;;14.00;12.80;;;;;;;22.89;32.95;94555.94;4942481;28;102682;-73
2021/12/30 04:12:45;;;;;;;13.73;12.57;;;;;;;22.92;32.90;94565.16;4958582;28;103253;-73
2021/12/30 04:15:11;;;;;;;13.20;12.00;;;;;;;22.93;32.81;94572.84;4958331;28;105533;-73
2021/12/30 04:17:37;;;;;;;13.30;12.20;;;;;;;22.95;33.20;94570.66;4958266;28;103245;-73
2021/12/30 04:20:07;;;;;;;13.03;11.93;;;;;;;22.97;33.22;94573.00;4954446;28;103721;-75
2021/12/30 04:22:33;;;;;;;12.90;11.80;;;;;;;22.99;32.97;94587.56;4959129;28;102595;-75
2021/12/30 04:24:59;;;;;;;13.10;11.90;;;;;;;22.97;33.12;94573.78;4960757;28;102810;-74
2021/12/30 04:27:24;;;;;;;13.00;11.90;;;;;;;22.97;32.68;94579.09;4960402;28;102651;-74
2021/12/30 04:29:50;;;;;;;12.47;11.47;;;;;;;22.99;32.95;94582.22;4956409;28;102743;-73
2021/12/30 04:32:15;;;;;;;11.13;10.23;;;;;;;23.00;32.95;94599.00;4942352;28;105644;-73
2021/12/30 04:34:41;;;;;;;11.80;10.80;;;;;;;22.99;33.15;94603.53;4959460;28;103348;-73
2021/12/30 04:37:06;;;;;;;11.73;10.73;;;;;;;23.02;32.78;94604.81;4959270;28;103287;-73
2021/12/30 04:39:32;;;;;;;10.33;9.50;;;;;;;23.02;32.94;94610.16;4943146;28;103364;-74
2021/12/30 04:41:59;;;;;;;11.57;10.57;;;;;;;23.04;32.73;94613.28;4953126;28;103444;-73
2021/12/30 04:44:25;;;;;;;11.93;10.90;;;;;;;23.04;32.68;94615.94;4958927;28;102785;-73
2021/12/30 04:46:51;;;;;;;10.37;9.57;;;;;;;23.03;32.72;94611.72;4941344;28;103185;-74
2021/12/30 04:49:16;;;;;;;10.73;9.83;;;;;;;23.06;32.54;94621.72;4958754;28;102896;-74
2021/12/30 04:51:42;;;;;;;10.77;9.87;;;;;;;23.06;32.76;94619.84;4955434;28;103758;-72
2021/12/30 04:54:08;;;;;;;10.40;9.50;;;;;;;23.07;32.75;94625.97;4960432;28;103263;-72
2021/12/30 04:56:33;;;;;;;11.30;9.80;;;;;;;23.06;32.61;94633.16;4959529;28;102650;-74
2021/12/30 04:58:59;;;;;;;10.47;9.67;;;;;;;23.08;32.74;94638.97;4941741;28;102699;-74
2021/12/30 05:01:24;;;;;;;10.60;9.70;;;;;;;23.07;32.54;94636.63;4960721;28;102947;-73
2021/12/30 05:03:50;;;;;;;10.37;9.47;;;;;;;23.06;32.53;94643.03;4953644;28;104768;-73
2021/12/30 05:06:15;;;;;;;10.20;9.40;;;;;;;23.08;32.23;94640.84;4958835;28;102715;-73
2021/12/30 05:08:41;;;;;;;10.10;9.20;;;;;;;23.09;32.54;94645.84;4957730;28;102773;-73
2021/12/30 05:11:07;;;;;;;10.20;9.30;;;;;;;23.09;32.35;94645.06;4954221;28;103453;-74
2021/12/30 05:13:32;;;;;;;10.40;9.60;;;;;;;23.08;32.66;94649.63;4953458;28;102868;-74
2021/12/30 05:15:58;;;;;;;9.73;8.93;;;;;;;23.09;32.42;94653.84;4959194;28;102716;-74
2021/12/30 05:18:30;;;;;;;9.10;8.40;;;;;;;23.08;32.40;94656.84;4959054;28;102883;-74
2021/12/30 05:20:57;;;;;;;8.83;8.13;;;;;;;23.10;32.47;94657.31;4958647;28;103745;-75
2021/12/30 05:23:23;;;;;;;8.90;8.20;;;;;;;23.09;32.55;94658.41;4936279;28;102809;-74
2021/12/30 05:25:48;;;;;;;9.67;8.80;;;;;;;23.08;32.36;94665.59;4933359;28;102831;-75
2021/12/30 05:28:14;;;;;;;8.70;7.90;;;;;;;23.10;32.27;94675.94;4939370;28;103043;-75
2021/12/30 05:30:39;;;;;;;8.57;7.80;;;;;;;23.10;32.12;94674.06;4938421;28;102706;-75
2021/12/30 05:33:05;;;;;;;8.23;7.57;;;;;;;23.09;32.64;94685.81;4938651;28;102703;-75
2021/12/30 05:35:31;;;;;;;8.83;8.10;;;;;;;23.10;32.44;94686.59;4933606;28;102799;-75
2021/12/30 05:37:57;;;;;;;7.60;7.10;;;;;;;23.10;32.14;94697.28;4919911;28;102784;-74
2021/12/30 05:40:23;;;;;;;8.57;7.87;;;;;;;23.10;32.59;94695.38;4920278;28;105519;-74
2021/12/30 05:42:49;;;;;;;8.50;7.80;;;;;;;23.12;32.12;94703.06;4938870;28;102738;-74
2021/12/30 05:45:16;;;;;;;7.57;6.87;;;;;;;23.10;32.40;94702.59;4928526;28;102833;-74
2021/12/30 05:47:46;;;;;;;7.60;7.00;;;;;;;23.10;32.52;94700.72;4933640;28;102811;-74
2021/12/30 05:50:14;;;;;;;8.27;7.67;;;;;;;23.11;32.50;94710.28;4937017;28;102629;-74
2021/12/30 05:52:40;;;;;;;8.30;7.50;;;;;;;23.11;32.06;94707.63;4939327;28;103459;-72
2021/12/30 05:55:06;;;;;;;8.20;7.60;;;;;;;23.11;32.01;94707.63;4939028;28;102728;-73
2021/12/30 05:57:33;;;;;;;6.77;6.27;;;;;;;23.12;32.24;94713.72;4918259;28;104869;-74
2021/12/30 05:59:59;;;;;;;7.40;6.80;;;;;;;23.11;31.80;94718.28;4939756;28;104750;-73
2021/12/30 06:02:25;;;;;;;6.70;6.10;;;;;;;23.10;32.37;94718.59;4940117;28;103626;-73
2021/12/30 06:04:50;;;;;;;6.87;6.30;;;;;;;23.11;32.32;94730.81;4940508;28;102559;-74
2021/12/30 06:07:16;;;;;;;6.73;6.23;;;;;;;23.10;32.38;94730.03;4940554;28;102881;-73
2021/12/30 06:09:42;;;;;;;7.20;6.60;;;;;;;23.11;32.07;94734.25;4915987;28;104456;-73
2021/12/30 06:12:08;;;;;;;6.70;6.20;;;;;;;23.10;31.86;94735.38;4922254;28;103364;-75
2021/12/30 06:14:34;;;;;;;6.80;6.30;;;;;;;23.13;32.29;94741.16;4939673;28;102694;-74
2021/12/30 06:17:00;;;;;;;6.33;5.83;;;;;;;23.14;31.74;94742.72;4941209;28;102805;-73
2021/12/30 06:19:25;;;;;;;6.13;5.63;;;;;;;23.13;32.06;94754.47;4939032;28;102921;-74
2021/12/30 06:21:51;;;;;;;6.17;5.67;;;;;;;23.13;31.73;94759.81;4941479;28;103976;-74
2021/12/30 06:24:16;;;;;;;6.10;5.70;;;;;;;23.12;31.96;94764.34;4894367;28;1335179;-74
2021/12/30 06:26:42;;;;;;;6.47;5.97;;;;;;;23.15;32.19;94777.06;4928637;28;102823;-73
2021/12/30 06:29:08;;;;;;;6.27;5.77;;;;;;;23.14;32.13;94774.69;4945766;28;102906;-74
2021/12/30 06:31:33;;;;;;;5.90;5.50;;;;;;;23.14;31.86;94785.38;4922093;28;104950;-74
2021/12/30 06:33:59;;;;;;;5.83;5.33;;;;;;;23.13;32.01;94789.13;4951259;28;102655;-74
2021/12/30 06:36:25;;;;;;;5.70;5.30;;;;;;;23.16;31.41;94793.84;4944700;28;102727;-74
2021/12/30 06:38:50;;;;;;;5.43;5.03;;;;;;;23.14;32.05;94791.47;4943729;28;103353;-74
2021/12/30 06:41:17;;;;;;;5.60;5.10;;;;;;;23.06;31.92;94795.72;4943324;28;103855;-74
2021/12/30 06:43:42;;;;;;;6.63;5.60;;;;;;;23.00;32.67;94812.13;4938502;28;102730;-72
2021/12/30 06:46:10;;;;;;;5.60;5.20;;;;;;;22.94;32.64;94811.50;4942985;28;102624;-75
2021/12/30 06:48:36;;;;;;;5.20;4.80;;;;;;;22.97;32.24;94810.09;4939756;28;102953;-73
2021/12/30 06:51:04;;;;;;;4.87;4.37;;;;;;;23.05;32.51;94823.47;4941637;28;103509;-73
2021/12/30 06:53:30;;;;;;;5.30;4.80;;;;;;;23.08;32.30;94822.03;4937274;28;102801;-72
2021/12/30 06:55:56;;;;;;;4.80;4.40;;;;;;;23.13;32.26;94823.78;4941475;28;102711;-73
2021/12/30 06:58:22;;;;;;;5.10;4.70;;;;;;;23.14;32.31;94833.34;4941911;28;102684;-73
2021/12/30 07:00:50;;;;;;;4.90;4.50;;;;;;;23.14;32.15;94834.13;4923865;28;104488;-73
2021/12/30 07:03:16;;;;;;;5.00;4.60;;;;;;;23.15;32.13;94848.22;4941517;28;102752;-73
2021/12/30 07:05:42;;;;;;;7.57;6.80;;;;;;;23.15;32.45;94850.88;4919492;28;103562;-74
2021/12/30 07:08:07;;;;;;;9.50;7.10;;;;;;;23.16;31.90;94852.47;4940306;28;105277;-74
2021/12/30 07:10:33;;;;;;;6.93;6.33;;;;;;;23.17;32.00;94870.03;4922132;28;105522;-71
2021/12/30 07:12:58;;;;;;;8.00;7.30;;;;;;;23.14;31.93;94873.31;4924227;28;104580;-73
2021/12/30 07:15:24;;;;;;;7.80;7.20;;;;;;;23.17;32.12;94880.69;4920949;28;102890;-76
2021/12/30 07:17:49;;;;;;;8.33;7.53;;;;;;;23.14;32.19;94881.31;4940940;28;105526;-75
2021/12/30 07:20:16;;;;;;;7.67;6.90;;;;;;;23.17;32.39;94886.00;4941539;28;102770;-73
2021/12/30 07:22:42;;;;;;;7.70;7.00;;;;;;;23.18;31.97;94900.91;4942043;28;102703;-72
2021/12/30 07:25:09;;;;;;;8.47;7.67;;;;;;;23.17;32.01;94902.00;4941919;28;102731;-71
2021/12/30 07:27:35;;;;;;;7.10;6.50;;;;;;;23.20;32.10;94909.41;4935909;28;103752;-72
2021/12/30 07:30:01;;;;;;;7.40;6.53;;;;;;;23.18;32.29;94909.72;4940318;28;103692;-72
2021/12/30 07:32:28;;;;;;;8.10;7.40;;;;;;;23.04;32.12;94909.81;4939075;28;103513;-73
2021/12/30 07:34:53;;;;;;;9.60;6.20;;;;;;;22.81;31.80;94913.59;4944051;28;102822;-72
2021/12/30 07:37:19;;;;;;;6.37;5.77;;;;;;;22.82;31.72;94917.88;4959416;28;103229;-71
2021/12/30 07:39:46;;;;;;;5.80;5.17;;;;;;;22.84;31.73;94914.88;4959876;28;103195;-72
2021/12/30 07:42:13;;;;;;;8.60;5.70;;;;;;;22.83;31.85;94931.97;4961490;28;102689;-72
2021/12/30 07:44:39;;;;;;;5.77;5.13;;;;;;;22.83;31.91;94932.75;4961795;28;102717;-73
2021/12/30 07:47:07;;;;;;;5.20;4.80;;;;;;;22.84;31.72;94929.00;4960283;28;102970;-73
2021/12/30 07:49:36;;;;;;;5.77;4.57;;;;;;;22.83;31.71;94935.41;4955318;28;103441;-72
2021/12/30 07:52:03;;;;;;;6.30;4.80;;;;;;;22.96;31.63;94937.19;4960929;28;102721;-72
2021/12/30 07:54:28;;;;;;;8.63;4.90;;;;;;;23.16;32.54;94933.19;4960211;28;102911;-74
2021/12/30 07:56:54;;;;;;;6.90;4.43;;;;;;;23.22;34.12;94933.88;4942755;28;103571;-71
2021/12/30 07:59:19;;;;;;;4.70;3.90;;;;;;;23.27;34.04;94939.06;4954910;28;103709;-72
2021/12/30 08:01:45;;;;;;;4.13;3.50;;;;;;;23.21;33.76;94940.28;4959825;28;104504;-72
2021/12/30 08:04:10;;;;;;;5.50;3.90;;;;;;;23.21;34.08;94941.06;4959703;28;103285;-72
2021/12/30 08:06:36;;;;;;;4.23;3.67;;;;;;;23.22;34.28;94947.19;4959926;28;103811;-72
2021/12/30 08:09:02;;;;;;;9.20;4.20;;;;;;;23.19;34.46;94953.16;4942236;28;106954;-72
2021/12/30 08:11:28;;;;;;;8.80;4.00;;;;;;;23.12;34.28;94948.25;4955212;28;102922;-72
2021/12/30 08:13:54;;;;;;;4.93;3.40;;;;;;;23.10;34.17;94959.22;4960715;28;102862;-72
2021/12/30 08:16:19;;;;;;;4.40;3.83;;;;;;;23.10;34.34;94958.44;4959838;28;103766;-70
2021/12/30 08:18:45;;;;;;;7.57;3.37;;;;;;;23.12;34.43;94964.22;4942182;28;105472;-71
2021/12/30 08:21:11;;;;;;;5.13;3.50;;;;;;;23.13;33.77;94963.13;4955700;28;102717;-74
2021/12/30 08:23:37;;;;;;;5.90;4.67;;;;;;;23.09;34.08;94965.63;4962263;28;102786;-74
2021/12/30 08:26:04;;;;;;;6.40;5.80;;;;;;;23.08;33.93;94969.41;4915055;28;104299;-73
2021/12/30 08:28:29;;;;;;;9.03;6.70;;;;;;;23.04;34.09;94971.09;4959397;28;103991;-76
2021/12/30 08:30:55;;;;;;;8.80;7.90;;;;;;;23.04;34.32;94979.09;4956014;28;103240;-73
2021/12/30 08:33:21;;;;;;;12.43;9.70;;;;;;;23.14;35.11;94983.38;4958030;28;102797;-73
2021/12/30 08:35:46;;;;;;;9.60;7.80;;;;;;;23.14;34.77;94986.03;4964921;28;104682;-74
2021/12/30 08:38:13;;;;;;;7.90;7.10;;;;;;;23.16;34.80;94991.06;4964149;28;102824;-70
2021/12/30 08:40:39;;;;;;;7.13;6.33;;;;;;;23.15;34.70;94995.59;4962965;28;102842;-73
2021/12/30 08:43:06;;;;;;;9.80;6.50;;;;;;;23.15;34.67;94997.47;4945132;28;102713;-73
2021/12/30 08:45:33;;;;;;;7.00;6.30;;;;;;;23.15;34.67;95005.47;4966416;28;104407;-71
2021/12/30 08:47:59;;;;;;;8.00;7.20;;;;;;;23.08;34.67;95008.59;4967109;28;102761;-71
2021/12/30 08:50:24;;;;;;;8.80;7.87;;;;;;;23.08;35.07;95012.03;4968832;28;103043;-71
2021/12/30 08:52:50;;;;;;;9.27;8.47;;;;;;;23.07;34.72;95015.78;4955916;28;102839;-71
2021/12/30 08:55:16;;;;;;;8.37;7.67;;;;;;;23.07;34.96;95015.78;4953454;28;104198;-72
2021/12/30 08:57:43;;;;;;;10.60;9.60;;;;;;;23.07;34.89;95023.78;4969522;28;103446;-70
2021/12/30 09:00:38;;;;;;;10.57;9.47;;;;;;;23.07;34.64;95026.44;4969759;28;102661;-71
2021/12/30 09:03:05;;;;;;;10.23;9.23;;;;;;;23.19;41.34;95033.88;4948614;28;103002;-72
2021/12/30 09:05:36;;;;;;;14.80;8.33;;;;;;;23.31;41.84;95031.41;4961269;28;103215;-72
2021/12/30 09:08:02;;;;;;;9.80;8.90;;;;;;;23.38;37.17;95031.78;4946440;28;104450;-74
2021/12/30 09:10:35;;;;;;;11.77;8.60;;;;;;;23.45;37.22;95031.31;4964268;28;102724;-73
2021/12/30 09:13:01;;;;;;;10.43;8.57;;;;;;;23.50;36.41;95039.19;4962187;28;102768;-73
2021/12/30 09:15:27;;;;;;;12.40;9.80;;;;;;;23.61;38.52;95034.41;4943123;28;104391;-73
2021/12/30 09:17:53;;;;;;;12.23;10.30;;;;;;;23.56;37.60;95045.97;4943459;28;105120;-72
2021/12/30 09:20:20;;;;;;;12.83;10.47;;;;;;;23.60;37.64;95046.16;4965190;28;102788;-75
2021/12/30 09:22:46;;;;;;;11.77;9.47;;;;;;;23.66;37.01;95047.59;4963870;28;102744;-73
2021/12/30 09:25:12;;;;;;;13.10;9.73;;;;;;;23.67;36.80;95060.59;4964170;28;104305;-71
2021/12/30 09:27:41;;;;;;;12.57;11.40;;;;;;;23.51;36.97;95053.28;4953075;28;104921;-72
2021/12/30 09:30:12;;;;;;;11.47;10.30;;;;;;;23.42;36.52;95055.94;4964193;28;102837;-75
2021/12/30 09:32:38;;;;;;;9.90;9.10;;;;;;;23.31;36.05;95067.97;4973174;28;102603;-77
2021/12/30 09:35:05;;;;;;;8.73;6.33;;;;;;;23.18;35.26;95066.97;4970468;28;103222;-74
2021/12/30 09:37:31;;;;;;;8.33;6.70;;;;;;;23.15;34.48;95064.88;4951426;28;103152;-72
2021/12/30 09:39:58;;;;;;;4.83;4.43;;;;;;;22.96;33.22;95070.41;4965443;28;103247;-71
2021/12/30 09:43:04;;;;;;;2.70;2.50;;;;;;;22.65;31.47;95069.53;4947862;28;102907;-76
2021/12/30 09:45:42;;;;;;;2.77;2.13;;;;;;;22.43;31.51;95071.09;4941607;28;102957;-74
2021/12/30 09:48:43;;;;;;;3.03;2.73;;;;;;;22.32;31.78;95037.00;4966471;28;102826;-74
2021/12/30 09:51:09;;;;;;;4.13;2.33;;;;;;;22.65;32.02;95064.22;4943482;23;103048;-50
2021/12/30 09:53:35;;;;;;;3.97;2.40;;;;;;;22.73;32.10;95064.28;4886537;28;103109;-49
2021/12/30 09:56:00;;;;;;;3.23;2.83;;;;;;;22.81;31.94;95066.22;4885253;28;102717;-48
2021/12/30 09:58:27;;;;;;;3.03;2.83;;;;;;;22.90;32.36;95068.19;4884804;28;103459;-49
2021/12/30 10:00:54;;;;;;;6.37;3.03;;;;;;;23.00;32.27;95071.38;4873119;28;103404;-48
2021/12/30 10:03:20;;;;;;;7.03;4.30;;;;;;;22.99;32.57;95069.03;4883191;28;102700;-50
2021/12/30 10:05:46;;;;;;;6.77;5.97;;;;;;;22.97;33.28;95073.88;4883354;28;103137;-50
2021/12/30 10:08:19;;;;;;;7.33;5.80;;;;;;;22.92;33.03;95077.47;4882491;28;102811;-51
2021/12/30 10:10:47;;;;;;;5.57;4.93;;;;;;;22.91;33.11;95070.56;4881198;28;103346;-50
2021/12/30 10:13:26;;;;;;;6.00;5.40;;;;;;;22.91;33.02;95073.22;4883848;28;103490;-51
2021/12/30 10:16:01;;;;;;;6.97;5.60;;;;;;;22.91;32.73;95075.88;4881249;28;103965;-51
2021/12/30 10:18:48;;;;;;;7.63;6.83;;;;;;;22.94;33.06;95085.94;4886303;28;103311;-51
2021/12/30 10:21:20;;;;;;;6.77;6.17;;;;;;;23.05;33.32;95081.16;4878335;28;102801;-51
2021/12/30 10:23:49;;;;;;;9.47;6.70;;;;;;;23.09;33.49;95084.78;4877950;28;102803;-50
2021/12/30 10:26:15;;;;;;;9.03;7.50;;;;;;;23.15;33.74;95082.75;4881955;28;103277;-51
2021/12/30 10:28:43;;;;;;;8.67;7.87;;;;;;;23.19;34.42;95073.09;4880848;28;103288;-51
2021/12/30 10:31:11;;;;;;;9.53;7.73;;;;;;;23.20;34.19;95075.44;4881851;28;104053;-51
2021/12/30 10:33:52;;;;;;;10.13;7.93;;;;;;;23.24;34.00;95083.59;4877384;28;102860;-51
2021/12/30 10:36:29;;;;;;;9.43;8.53;;;;;;;23.33;34.48;95085.22;4882750;28;102730;-51
2021/12/30 10:39:21;;;;;;;8.90;8.10;;;;;;;23.36;34.27;95086.50;4883036;28;103079;-51
2021/12/30 10:41:49;;;;;;;7.87;7.27;;;;;;;23.40;34.30;95084.78;4881395;28;102949;-51
2021/12/30 10:44:17;;;;;;;8.57;7.43;;;;;;;23.40;34.51;95090.13;4878063;28;102735;-51
2021/12/30 10:46:43;;;;;;;8.83;7.20;;;;;;;23.39;34.51;95088.56;4882368;28;102850;-51
2021/12/30 10:49:11;;;;;;;8.23;7.43;;;;;;;23.40;33.95;95087.47;4881471;28;103336;-50
2021/12/30 10:51:47;;;;;;;9.87;8.97;;;;;;;23.43;34.26;95086.84;4878987;28;103369;-51
2021/12/30 10:54:28;;;;;;;27.30;16.53;;;;;;;23.43;33.84;95076.19;4882695;28;103320;-51
2021/12/30 10:56:53;;;;;;;55.80;29.17;;;;;;;23.42;34.00;95075.41;4876415;28;102776;-51
2021/12/30 10:59:23;;;;;;;37.17;22.50;;;;;;;23.51;34.14;95072.75;4881330;28;103212;-51
2021/12/30 11:02:05;;;;;;;27.93;20.63;;;;;;;23.54;33.84;95077.50;4882105;28;102724;-51
2021/12/30 11:04:34;;;;;;;34.40;21.13;;;;;;;23.55;34.22;95079.06;4882820;28;102682;-51
2021/12/30 11:06:59;;;;;;;31.80;21.40;;;;;;;23.55;34.03;95078.28;4883875;28;103530;-51
2021/12/30 11:09:25;;;;;;;29.80;18.83;;;;;;;23.53;34.20;95089.25;4894161;28;102818;-51
2021/12/30 11:12:05;;;;;;;24.07;18.03;;;;;;;23.52;34.27;95090.34;4884824;28;103266;-51
2021/12/30 11:14:36;;;;;;;22.00;16.70;;;;;;;23.55;33.93;95094.28;4880730;28;102748;-51
2021/12/30 11:17:12;;;;;;;24.10;17.57;;;;;;;23.52;34.17;95089.56;4891714;28;103287;-50
2021/12/30 11:19:43;;;;;;;21.17;16.50;;;;;;;23.52;34.05;95094.91;4890399;28;102951;-50